createdAt,value
2023-03-17T00:01:42.518Z,96276.00
2023-03-17T00:04:11.688Z,96283.03
2023-03-17T00:06:38.476Z,96271.19
2023-03-17T00:09:10.318Z,96280.34
2023-03-17T00:11:38.209Z,96267.50
2023-03-17T00:14:05.315Z,96263.50
2023-03-17T00:16:37.394Z,96261.56
2023-03-17T00:19:05.076Z,96263.97
2023-03-17T00:21:34.134Z,96265.81
2023-03-17T00:24:01.884Z,96263.69
2023-03-17T00:26:29.495Z,96259.88
2023-03-17T00:28:57.501Z,96257.75
2023-03-17T00:31:28.436Z,96260.44
2023-03-17T00:33:56.349Z,96251.31
2023-03-17T00:36:26.581Z,96255.34
2023-03-17T00:38:55.965Z,96246.75
2023-03-17T00:41:25.029Z,96246.69
2023-03-17T00:43:52.471Z,96246.38
2023-03-17T00:46:29.081Z,96245.03
2023-03-17T00:48:58.516Z,96242.56
2023-03-17T00:51:25.763Z,96233.69
2023-03-17T00:53:55.450Z,96237.22
2023-03-17T00:56:23.733Z,96238.84
2023-03-17T00:58:51.780Z,96231.28
2023-03-17T01:01:19.153Z,96240.47
2023-03-17T01:03:47.907Z,96224.03
2023-03-17T01:06:15.691Z,96227.03
2023-03-17T01:08:43.033Z,96224.25
2023-03-17T01:11:16.184Z,96220.63
2023-03-17T01:13:43.526Z,96216.03
2023-03-17T01:16:12.516Z,96214.13
2023-03-17T01:18:40.522Z,96211.97
2023-03-17T01:21:08.605Z,96208.19
2023-03-17T01:23:37.037Z,96208.19
2023-03-17T01:26:04.889Z,96203.63
2023-03-17T01:28:33.229Z,96201.78
2023-03-17T01:31:01.438Z,96196.09
2023-03-17T01:33:29.208Z,96202.81
2023-03-17T01:35:56.263Z,96192.13
2023-03-17T01:38:23.501Z,96187.88
2023-03-17T01:40:51.672Z,96190.84
2023-03-17T01:43:24.592Z,96182.50
2023-03-17T01:46:22.951Z,96187.72
2023-03-17T01:49:04.044Z,96180.22
2023-03-17T01:52:05.626Z,96175.06
2023-03-17T01:54:46.456Z,96171.56
2023-03-17T01:57:23.475Z,96171.81
2023-03-17T02:00:06.487Z,96169.66
2023-03-17T02:02:43.358Z,96168.06
2023-03-17T02:05:13.346Z,96158.34
2023-03-17T02:07:43.272Z,96157.13
2023-03-17T02:10:11.296Z,96158.56
2023-03-17T02:12:40.814Z,96156.13
2023-03-17T02:15:09.898Z,96155.06
2023-03-17T02:17:38.699Z,96145.59
2023-03-17T02:20:18.948Z,96141.53
2023-03-17T02:22:51.199Z,96138.00
2023-03-17T02:25:20.714Z,96135.53
2023-03-17T02:27:50.726Z,96136.63
2023-03-17T02:30:23.672Z,96122.06
2023-03-17T02:32:51.731Z,96128.22
2023-03-17T02:35:22.647Z,96133.09
2023-03-17T02:37:49.595Z,96129.13
2023-03-17T02:40:16.734Z,96121.59
2023-03-17T02:42:43.510Z,96127.31
2023-03-17T02:45:12.033Z,96123.44
2023-03-17T02:47:39.706Z,96117.41
2023-03-17T02:50:07.759Z,96120.97
2023-03-17T02:52:35.375Z,96110.38
2023-03-17T02:55:03.372Z,96112.78
2023-03-17T02:57:30.798Z,96112.50
2023-03-17T02:59:58.627Z,96116.94
2023-03-17T03:02:26.723Z,96117.50
2023-03-17T03:04:54.512Z,96107.84
2023-03-17T03:07:23.425Z,96110.00
2023-03-17T03:09:51.199Z,96107.59
2023-03-17T03:12:18.630Z,96115.16
2023-03-17T03:14:46.588Z,96117.09
2023-03-17T03:17:13.999Z,96110.91
2023-03-17T03:19:40.930Z,96108.19
2023-03-17T03:22:08.779Z,96111.78
2023-03-17T03:24:36.808Z,96110.13
2023-03-17T03:27:04.830Z,96110.63
2023-03-17T03:29:32.358Z,96108.19
2023-03-17T03:31:59.349Z,96102.59
2023-03-17T03:34:26.230Z,96105.22
2023-03-17T03:36:53.325Z,96106.84
2023-03-17T03:39:20.013Z,96110.97
2023-03-17T03:41:46.708Z,96105.88
2023-03-17T03:44:13.797Z,96113.47
2023-03-17T03:46:41.238Z,96116.16
2023-03-17T03:49:08.482Z,96110.22
2023-03-17T03:51:36.028Z,96112.56
2023-03-17T03:54:03.658Z,96114.44
2023-03-17T03:56:30.696Z,96115.94
2023-03-17T03:58:58.739Z,96120.53
2023-03-17T04:01:26.046Z,96113.88
2023-03-17T04:03:53.383Z,96111.19
2023-03-17T04:06:20.400Z,96112.25
2023-03-17T04:08:47.296Z,96102.25
2023-03-17T04:11:13.954Z,96107.34
2023-03-17T04:13:40.775Z,96106.72
2023-03-17T04:16:08.205Z,96101.63
2023-03-17T04:18:36.029Z,96102.75
2023-03-17T04:21:03.316Z,96096.19
2023-03-17T04:23:31.955Z,96109.66
2023-03-17T04:25:59.390Z,96108.09
2023-03-17T04:28:26.996Z,96113.72
2023-03-17T04:30:54.377Z,96108.56
2023-03-17T04:33:21.903Z,96107.22
2023-03-17T04:35:49.055Z,96112.00
2023-03-17T04:38:16.118Z,96112.06
2023-03-17T04:40:43.244Z,96110.94
2023-03-17T04:43:10.682Z,96113.84
2023-03-17T04:45:37.903Z,96114.91
2023-03-17T04:48:06.044Z,96111.56
2023-03-17T04:50:34.662Z,96112.16
2023-03-17T04:53:02.345Z,96107.41
2023-03-17T04:55:29.673Z,96104.75
2023-03-17T04:57:57.492Z,96097.22
2023-03-17T05:00:25.894Z,96090.19
2023-03-17T05:02:53.237Z,96095.28
2023-03-17T05:05:20.894Z,96085.31
2023-03-17T05:07:48.408Z,96079.66
2023-03-17T05:10:16.472Z,96076.22
2023-03-17T05:12:45.349Z,96073.53
2023-03-17T05:15:12.082Z,96062.78
2023-03-17T05:17:38.886Z,96062.22
2023-03-17T05:20:06.474Z,96054.66
2023-03-17T05:22:33.435Z,96054.41
2023-03-17T05:25:00.727Z,96050.63
2023-03-17T05:27:28.259Z,96052.19
2023-03-17T05:29:55.566Z,96064.31
2023-03-17T05:32:22.945Z,96057.84
2023-03-17T05:34:50.135Z,96056.75
2023-03-17T05:37:17.780Z,96059.50
2023-03-17T05:39:44.866Z,96061.94
2023-03-17T05:42:11.876Z,96065.47
2023-03-17T05:44:38.600Z,96061.78
2023-03-17T05:47:05.520Z,96071.94
2023-03-17T05:49:32.388Z,96071.56
2023-03-17T05:51:59.667Z,96081.47
2023-03-17T05:54:26.916Z,96079.78
2023-03-17T05:56:54.190Z,96092.13
2023-03-17T05:59:22.444Z,96087.84
2023-03-17T06:01:49.905Z,96091.81
2023-03-17T06:04:17.662Z,96082.59
2023-03-17T06:06:45.377Z,96080.09
2023-03-17T06:09:12.747Z,96071.91
2023-03-17T06:11:40.382Z,96079.56
2023-03-17T06:14:07.841Z,96070.00
2023-03-17T06:16:35.961Z,96064.97
2023-03-17T06:19:02.887Z,96063.72
2023-03-17T06:21:30.257Z,96063.59
2023-03-17T06:23:57.791Z,96073.78
2023-03-17T06:26:25.005Z,96077.16
2023-03-17T06:28:53.291Z,96090.31
2023-03-17T06:31:21.058Z,96090.41
2023-03-17T06:33:49.280Z,96090.84
2023-03-17T06:36:17.235Z,96088.25
2023-03-17T06:38:46.802Z,96088.09
2023-03-17T06:41:13.772Z,96089.13
2023-03-17T06:43:41.304Z,96090.28
2023-03-17T06:46:08.441Z,96093.59
2023-03-17T06:48:35.822Z,96092.09
2023-03-17T06:51:03.353Z,96084.94
2023-03-17T06:53:30.486Z,96077.44
2023-03-17T06:55:57.430Z,96076.06
2023-03-17T06:58:24.986Z,96071.38
2023-03-17T07:00:54.334Z,96073.56
2023-03-17T07:03:22.849Z,96058.25
2023-03-17T07:05:49.694Z,96063.66
2023-03-17T07:08:17.435Z,96070.13
2023-03-17T07:10:44.339Z,96067.53
2023-03-17T07:13:11.207Z,96069.25
2023-03-17T07:15:38.809Z,96077.69
2023-03-17T07:18:06.653Z,96079.59
2023-03-17T07:20:33.571Z,96082.91
2023-03-17T07:23:00.799Z,96092.25
2023-03-17T07:25:28.689Z,96096.56
2023-03-17T07:27:56.675Z,96091.56
2023-03-17T07:30:23.448Z,96090.81
2023-03-17T07:32:50.450Z,96079.16
2023-03-17T07:35:17.806Z,96078.16
2023-03-17T07:37:44.818Z,96075.63
2023-03-17T07:40:12.341Z,96068.38
2023-03-17T07:42:39.138Z,96065.50
2023-03-17T07:45:08.606Z,96057.03
2023-03-17T07:47:35.411Z,96070.88
2023-03-17T07:50:02.626Z,96067.69
2023-03-17T07:52:29.462Z,96066.81
2023-03-17T07:54:58.307Z,96065.72
2023-03-17T07:57:25.531Z,96064.44
2023-03-17T07:59:52.673Z,96066.38
2023-03-17T08:02:19.839Z,96072.44
2023-03-17T08:04:47.089Z,96067.47
2023-03-17T08:07:15.543Z,96056.19
2023-03-17T08:09:43.103Z,96055.81
2023-03-17T08:12:10.539Z,96054.56
2023-03-17T08:14:37.321Z,96051.19
2023-03-17T08:17:04.995Z,96061.50
2023-03-17T08:19:31.883Z,96046.28
2023-03-17T08:21:58.754Z,96053.97
2023-03-17T08:24:27.144Z,96043.19
2023-03-17T08:26:54.175Z,96036.84
2023-03-17T08:29:21.238Z,96034.56
2023-03-17T08:31:48.237Z,96029.03
2023-03-17T08:34:16.295Z,96026.47
2023-03-17T08:36:43.956Z,96023.78
2023-03-17T08:39:11.063Z,96025.84
2023-03-17T08:41:38.521Z,96019.97
2023-03-17T08:44:05.475Z,96018.69
2023-03-17T08:46:33.292Z,96015.47
2023-03-17T08:49:01.631Z,96014.69
2023-03-17T08:51:31.256Z,96009.72
2023-03-17T08:53:59.026Z,96004.44
2023-03-17T08:56:26.615Z,96000.25
2023-03-17T08:58:53.848Z,96010.19
2023-03-17T09:01:21.364Z,96013.53
2023-03-17T09:03:49.901Z,96010.94
2023-03-17T09:06:16.870Z,96013.03
2023-03-17T09:08:47.684Z,96015.59
2023-03-17T09:11:17.252Z,96017.03
2023-03-17T09:13:46.758Z,96031.47
2023-03-17T09:16:14.910Z,96029.19
2023-03-17T09:18:42.226Z,96020.69
2023-03-17T09:21:11.038Z,96031.91
2023-03-17T09:23:38.219Z,96034.31
2023-03-17T09:26:05.093Z,96037.38
2023-03-17T09:28:32.342Z,96035.00
2023-03-17T09:31:01.655Z,96035.28
2023-03-17T09:33:29.008Z,96037.34
2023-03-17T09:35:57.214Z,96036.19
2023-03-17T09:38:25.877Z,96033.50
2023-03-17T09:41:04.722Z,96039.59
2023-03-17T09:43:52.643Z,96032.47
2023-03-17T09:46:44.302Z,96026.66
2023-03-17T09:49:28.016Z,96024.16
2023-03-17T09:51:56.103Z,96024.38
2023-03-17T09:54:35.082Z,96024.63
2023-03-17T09:57:33.186Z,96028.09
2023-03-17T10:00:02.130Z,96026.88
2023-03-17T10:02:33.251Z,96025.91
2023-03-17T10:05:12.740Z,96019.81
2023-03-17T10:07:44.779Z,96009.81
2023-03-17T10:10:23.858Z,96023.03
2023-03-17T10:13:09.840Z,96015.00
2023-03-17T10:16:01.358Z,96008.19
2023-03-17T10:18:33.456Z,96011.84
2023-03-17T10:21:03.484Z,96015.75
2023-03-17T10:23:33.228Z,96014.78
2023-03-17T10:26:12.778Z,96013.06
2023-03-17T10:28:40.211Z,95998.06
2023-03-17T10:31:30.816Z,95992.97
2023-03-17T10:33:59.217Z,95980.31
2023-03-17T10:36:38.284Z,95975.66
2023-03-17T10:39:07.129Z,95967.75
2023-03-17T10:41:36.975Z,95958.19
2023-03-17T10:44:10.207Z,95952.53
2023-03-17T10:46:38.789Z,95961.38
2023-03-17T10:49:16.960Z,95958.53
2023-03-17T10:51:46.778Z,95956.19
2023-03-17T10:54:18.376Z,95943.09
2023-03-17T10:56:48.205Z,95942.91
2023-03-17T10:59:25.357Z,95941.91
2023-03-17T11:02:12.761Z,95927.88
2023-03-17T11:04:42.644Z,95931.50
2023-03-17T11:07:16.723Z,95927.97
2023-03-17T11:09:44.779Z,95926.22
2023-03-17T11:12:38.529Z,95927.19
2023-03-17T11:15:10.808Z,95929.19
2023-03-17T11:17:49.977Z,95924.19
2023-03-17T11:20:39.031Z,95917.19
2023-03-17T11:23:15.827Z,95914.75
2023-03-17T11:25:45.012Z,95917.28
2023-03-17T11:28:21.630Z,95913.81
2023-03-17T11:30:54.570Z,95906.09
2023-03-17T11:33:37.237Z,95905.56
2023-03-17T11:36:07.215Z,95896.56
2023-03-17T11:38:43.872Z,95886.66
2023-03-17T11:41:21.028Z,95888.53
2023-03-17T11:44:09.570Z,95889.56
2023-03-17T11:46:44.288Z,95888.09
2023-03-17T11:49:20.554Z,95885.34
2023-03-17T11:51:53.420Z,95886.81
2023-03-17T11:54:26.307Z,95887.56
2023-03-17T11:56:59.971Z,95884.72
2023-03-17T11:59:31.790Z,95875.00
2023-03-17T12:02:19.206Z,95872.91
2023-03-17T12:04:57.369Z,95870.00
2023-03-17T12:07:53.628Z,95874.00
2023-03-17T12:10:54.267Z,95868.78
2023-03-17T12:13:29.963Z,95854.78
2023-03-17T12:16:03.393Z,95863.78
2023-03-17T12:18:34.010Z,95860.84
2023-03-17T12:21:09.716Z,95853.63
2023-03-17T12:23:43.606Z,95852.69
2023-03-17T12:26:20.448Z,95847.28
2023-03-17T12:28:58.443Z,95848.97
2023-03-17T12:31:33.188Z,95842.47
2023-03-17T12:34:05.597Z,95837.44
2023-03-17T12:36:35.648Z,95837.75
2023-03-17T12:39:10.746Z,95838.31
2023-03-17T12:42:09.431Z,95830.75
2023-03-17T12:44:44.525Z,95831.75
2023-03-17T12:47:46.714Z,95832.81
2023-03-17T12:50:23.868Z,95836.16
2023-03-17T12:53:16.668Z,95814.59
2023-03-17T12:55:47.647Z,95816.28
2023-03-17T12:58:29.883Z,95819.72
2023-03-17T13:01:10.045Z,95810.50
2023-03-17T13:04:02.134Z,95808.81
2023-03-17T13:06:46.062Z,95802.94
2023-03-17T13:09:53.121Z,95800.88
2023-03-17T13:12:44.620Z,95793.34
2023-03-17T13:15:28.215Z,95791.50
2023-03-17T13:18:18.645Z,95783.97
2023-03-17T13:20:57.937Z,95791.41
2023-03-17T13:23:59.730Z,95790.66
2023-03-17T13:26:55.078Z,95780.94
2023-03-17T13:29:33.262Z,95775.91
2023-03-17T13:32:19.129Z,95791.63
2023-03-17T13:34:51.378Z,95786.56
2023-03-17T13:37:29.241Z,95788.03
2023-03-17T13:40:24.237Z,95782.47
2023-03-17T13:43:15.584Z,95791.06
2023-03-17T13:45:44.651Z,95785.41
2023-03-17T13:48:36.745Z,95788.13
2023-03-17T13:51:16.728Z,95781.81
2023-03-17T13:53:56.693Z,95777.56
2023-03-17T13:56:47.022Z,95780.72
2023-03-17T13:59:15.764Z,95771.69
2023-03-17T14:01:58.165Z,95779.56
2023-03-17T14:04:35.954Z,95785.44
2023-03-17T14:07:09.450Z,95768.19
2023-03-17T14:09:40.231Z,95755.31
2023-03-17T14:12:27.934Z,95765.44
2023-03-17T14:15:08.590Z,95758.28
2023-03-17T14:17:49.136Z,95759.38
2023-03-17T14:20:16.848Z,95764.47
2023-03-17T14:22:46.334Z,95762.75
2023-03-17T14:25:25.993Z,95767.84
2023-03-17T14:27:56.301Z,95766.25
2023-03-17T14:30:29.334Z,95757.66
2023-03-17T14:33:24.677Z,95761.22
2023-03-17T14:35:53.935Z,95761.16
2023-03-17T14:38:20.727Z,95761.84
2023-03-17T14:40:50.238Z,95753.25
2023-03-17T14:43:17.744Z,95762.31
2023-03-17T14:45:49.887Z,95752.88
2023-03-17T14:48:23.204Z,95744.22
2023-03-17T14:50:54.072Z,95740.28
2023-03-17T14:53:23.809Z,95750.88
2023-03-17T14:55:53.153Z,95739.16
2023-03-17T14:58:28.383Z,95741.63
2023-03-17T15:01:04.778Z,95737.28
2023-03-17T15:03:34.700Z,95735.63
2023-03-17T15:06:27.275Z,95730.44
2023-03-17T15:08:56.771Z,95726.19
2023-03-17T15:11:29.152Z,95725.75
2023-03-17T15:14:07.804Z,95721.41
2023-03-17T15:16:36.510Z,95725.00
2023-03-17T15:19:16.433Z,95721.06
2023-03-17T15:21:44.857Z,95715.94
2023-03-17T15:24:32.221Z,95719.06
2023-03-17T15:27:08.068Z,95704.06
2023-03-17T15:29:37.168Z,95707.97
2023-03-17T15:32:20.445Z,95702.41
2023-03-17T15:34:50.204Z,95711.47
2023-03-17T15:37:22.802Z,95703.19
2023-03-17T15:39:53.225Z,95698.41
2023-03-17T15:42:22.682Z,95691.69
2023-03-17T15:44:49.763Z,95684.19
2023-03-17T15:47:21.852Z,95698.28
2023-03-17T15:49:51.380Z,95702.56
2023-03-17T15:52:26.842Z,95700.63
2023-03-17T15:54:57.178Z,95695.84
2023-03-17T15:57:26.502Z,95692.69
2023-03-17T15:59:54.574Z,95688.72
2023-03-17T16:02:35.733Z,95697.31
2023-03-17T16:05:11.409Z,95681.09
2023-03-17T16:07:39.904Z,95695.69
2023-03-17T16:10:17.388Z,95690.09
2023-03-17T16:12:44.958Z,95690.84
2023-03-17T16:15:23.151Z,95687.94
2023-03-17T16:17:53.707Z,95689.25
2023-03-17T16:20:25.538Z,95685.97
2023-03-17T16:22:54.799Z,95680.09
2023-03-17T16:25:22.063Z,95687.91
2023-03-17T16:27:49.986Z,95689.06
2023-03-17T16:30:29.546Z,95686.66
2023-03-17T16:33:03.917Z,95696.69
2023-03-17T16:35:31.988Z,95696.91
2023-03-17T16:37:59.529Z,95699.97
2023-03-17T16:40:29.847Z,95700.56
2023-03-17T16:42:58.396Z,95694.91
2023-03-17T16:45:28.679Z,95693.16
2023-03-17T16:47:57.228Z,95691.38
2023-03-17T16:50:26.664Z,95686.00
2023-03-17T16:52:53.766Z,95691.41
2023-03-17T16:55:22.200Z,95691.16
2023-03-17T16:57:49.970Z,95688.38
2023-03-17T17:00:26.189Z,95692.06
2023-03-17T17:02:54.212Z,95696.41
2023-03-17T17:05:27.198Z,95698.72
2023-03-17T17:07:56.259Z,95700.06
2023-03-17T17:10:26.263Z,95695.84
2023-03-17T17:12:53.319Z,95689.06
2023-03-17T17:15:21.922Z,95693.03
2023-03-17T17:17:56.264Z,95691.66
2023-03-17T17:20:39.539Z,95685.00
2023-03-17T17:23:12.374Z,95681.81
2023-03-17T17:25:40.387Z,95688.66
2023-03-17T17:28:07.704Z,95687.19
2023-03-17T17:30:35.739Z,95692.00
2023-03-17T17:33:03.982Z,95688.34
2023-03-17T17:35:33.275Z,95694.59
2023-03-17T17:38:04.145Z,95698.00
2023-03-17T17:40:31.958Z,95702.25
2023-03-17T17:42:59.463Z,95707.66
2023-03-17T17:45:26.306Z,95701.81
2023-03-17T17:47:53.328Z,95695.28
2023-03-17T17:50:26.177Z,95697.47
2023-03-17T17:52:53.790Z,95701.59
2023-03-17T17:55:21.836Z,95705.59
2023-03-17T17:57:50.808Z,95700.28
2023-03-17T18:00:21.818Z,95698.97
2023-03-17T18:02:50.926Z,95695.34
2023-03-17T18:05:18.302Z,95697.19
2023-03-17T18:07:46.713Z,95700.63
2023-03-17T18:10:33.287Z,95692.66
2023-03-17T18:13:01.307Z,95692.78
2023-03-17T18:15:29.611Z,95687.09
2023-03-17T18:17:56.665Z,95687.72
2023-03-17T18:20:23.738Z,95679.75
2023-03-17T18:22:51.248Z,95683.53
2023-03-17T18:25:19.559Z,95686.72
2023-03-17T18:27:47.633Z,95685.22
2023-03-17T18:30:22.552Z,95682.63
2023-03-17T18:32:51.056Z,95677.84
2023-03-17T18:35:21.521Z,95682.03
2023-03-17T18:37:49.691Z,95679.00
2023-03-17T18:40:19.410Z,95680.97
2023-03-17T18:42:47.466Z,95681.97
2023-03-17T18:45:15.538Z,95677.66
2023-03-17T18:47:43.442Z,95678.91
2023-03-17T18:50:13.851Z,95690.72
2023-03-17T18:52:42.998Z,95676.84
2023-03-17T18:55:12.603Z,95680.63
2023-03-17T18:57:39.859Z,95678.81
2023-03-17T19:00:09.972Z,95672.00
2023-03-17T19:02:38.033Z,95680.09
2023-03-17T19:05:07.666Z,95676.88
2023-03-17T19:07:35.215Z,95670.53
2023-03-17T19:10:02.389Z,95679.19
2023-03-17T19:12:29.830Z,95680.78
2023-03-17T19:14:57.001Z,95681.34
2023-03-17T19:17:25.829Z,95684.25
2023-03-17T19:19:53.834Z,95672.66
2023-03-17T19:22:21.781Z,95680.97
2023-03-17T19:24:50.517Z,95678.31
2023-03-17T19:27:18.671Z,95673.88
2023-03-17T19:29:46.243Z,95674.34
2023-03-17T19:32:13.940Z,95668.44
2023-03-17T19:34:41.528Z,95675.47
2023-03-17T19:37:08.763Z,95669.66
2023-03-17T19:39:37.777Z,95677.97
2023-03-17T19:42:05.142Z,95679.19
2023-03-17T19:44:32.583Z,95683.84
2023-03-17T19:47:02.201Z,95684.66
2023-03-17T19:49:30.028Z,95682.84
2023-03-17T19:51:57.976Z,95693.03
2023-03-17T19:54:25.466Z,95681.06
2023-03-17T19:56:52.966Z,95683.41
2023-03-17T19:59:20.374Z,95675.81
2023-03-17T20:01:49.161Z,95671.03
2023-03-17T20:04:19.702Z,95673.97
2023-03-17T20:06:46.944Z,95674.97
2023-03-17T20:09:14.908Z,95671.38
2023-03-17T20:11:43.062Z,95676.41
2023-03-17T20:14:10.097Z,95667.88
2023-03-17T20:16:38.002Z,95674.66
2023-03-17T20:19:05.831Z,95674.34
2023-03-17T20:21:34.046Z,95668.41
2023-03-17T20:24:02.995Z,95665.22
2023-03-17T20:26:31.199Z,95673.22
2023-03-17T20:28:58.615Z,95666.09
2023-03-17T20:31:26.837Z,95675.13
2023-03-17T20:33:57.449Z,95672.22
2023-03-17T20:36:26.576Z,95669.03
2023-03-17T20:38:54.324Z,95679.94
2023-03-17T20:41:24.214Z,95677.53
2023-03-17T20:43:52.018Z,95673.22
2023-03-17T20:46:21.522Z,95664.22
2023-03-17T20:48:49.147Z,95672.88
2023-03-17T20:51:18.388Z,95668.88
2023-03-17T20:53:49.282Z,95666.34
2023-03-17T20:56:19.905Z,95664.78
2023-03-17T20:58:48.768Z,95666.84
2023-03-17T21:01:20.871Z,95664.03
2023-03-17T21:03:49.822Z,95662.44
2023-03-17T21:06:17.917Z,95659.56
2023-03-17T21:08:46.208Z,95662.38
2023-03-17T21:11:20.930Z,95665.91
2023-03-17T21:13:48.098Z,95669.84
2023-03-17T21:16:21.562Z,95661.69
2023-03-17T21:18:49.068Z,95664.66
2023-03-17T21:21:17.149Z,95664.72
2023-03-17T21:23:44.417Z,95665.84
2023-03-17T21:26:12.667Z,95661.13
2023-03-17T21:28:41.603Z,95658.56
2023-03-17T21:31:09.969Z,95654.06
2023-03-17T21:33:37.814Z,95657.56
2023-03-17T21:36:06.950Z,95649.72
2023-03-17T21:38:34.962Z,95656.91
2023-03-17T21:41:23.799Z,95654.50
2023-03-17T21:43:51.383Z,95653.06
2023-03-17T21:46:19.198Z,95654.94
2023-03-17T21:48:46.982Z,95662.66
2023-03-17T21:51:14.567Z,95656.78
2023-03-17T21:53:41.752Z,95665.75
2023-03-17T21:56:11.942Z,95663.03
2023-03-17T21:58:39.883Z,95659.78
2023-03-17T22:01:08.108Z,95669.59
2023-03-17T22:03:37.494Z,95669.78
2023-03-17T22:06:06.046Z,95676.16
2023-03-17T22:08:32.747Z,95668.47
2023-03-17T22:11:00.478Z,95663.03
2023-03-17T22:13:27.584Z,95665.28
2023-03-17T22:15:59.457Z,95667.53
2023-03-17T22:18:27.435Z,95664.34
2023-03-17T22:20:56.259Z,95665.69
2023-03-17T22:23:25.273Z,95655.94
2023-03-17T22:25:52.994Z,95668.13
2023-03-17T22:28:20.653Z,95662.03
2023-03-17T22:30:48.173Z,95660.94
2023-03-17T22:33:15.792Z,95661.69
2023-03-17T22:35:45.020Z,95655.31
2023-03-17T22:38:13.445Z,95661.88
2023-03-17T22:40:40.877Z,95651.66
2023-03-17T22:43:08.107Z,95651.38
2023-03-17T22:45:35.719Z,95639.19
2023-03-17T22:48:02.723Z,95641.56
2023-03-17T22:50:30.371Z,95643.38
2023-03-17T22:52:57.824Z,95646.28
2023-03-17T22:55:24.776Z,95639.25
2023-03-17T23:00:54.629Z,95646.44
2023-03-17T23:03:22.133Z,95653.28
2023-03-17T23:05:52.338Z,95662.81
2023-03-17T23:08:20.552Z,95664.75
2023-03-17T23:10:50.281Z,95662.03
2023-03-17T23:13:19.377Z,95670.19
2023-03-17T23:15:48.143Z,95672.28
2023-03-17T23:18:15.813Z,95670.06
2023-03-17T23:20:43.860Z,95681.09
2023-03-17T23:23:14.597Z,95679.66
2023-03-17T23:25:42.247Z,95679.50
2023-03-17T23:28:10.755Z,95682.88
2023-03-17T23:30:38.757Z,95685.25
2023-03-17T23:33:07.676Z,95688.94
2023-03-17T23:35:36.019Z,95695.47
2023-03-17T23:38:04.854Z,95704.13
2023-03-17T23:40:34.816Z,95705.56
2023-03-17T23:43:02.391Z,95703.00
2023-03-17T23:45:29.685Z,95719.28
2023-03-17T23:47:58.054Z,95715.13
2023-03-17T23:50:26.495Z,95721.03
2023-03-17T23:52:54.197Z,95726.13
2023-03-17T23:55:21.189Z,95725.50
2023-03-17T23:57:48.276Z,95735.06
